Аэропорт: Казань. Казань

ICAO: UWKD

METAR:
2022-06-26 11:30:00
UWKD 261130Z 34008G13MPS CAVOK 23/02 Q1016 R29/70D TEMPO 35008G15MPS RMK QFE751/1001
METAR:
2022-06-26 07:53:00
TAF UWKD 260753Z 2609/2709 34008G15MPS CAVOK TX22/2612Z TN10/2701Z BECMG 2615/2617 29003MPS BECMG 2704/2706 01005G12MPS TEMPO 2706/2709 VRB18MPS 6000 -TSRA SQ BKN020CB